sensor_id;sensor_type;location;lat;lon;timestamp;P1;durP1;ratioP1;P2;durP2;ratioP2
41404;SDS011;27146;51.788;8.824;2022-08-01T00:00:57;765.90;;;710.63;;
41404;SDS011;27146;51.788;8.824;2022-08-01T00:03:23;798.20;;;737.97;;
41404;SDS011;27146;51.788;8.824;2022-08-01T00:05:48;699.85;;;647.20;;
41404;SDS011;27146;51.788;8.824;2022-08-01T00:08:14;733.05;;;679.42;;
41404;SDS011;27146;51.788;8.824;2022-08-01T00:10:39;749.38;;;693.50;;
41404;SDS011;27146;51.788;8.824;2022-08-01T00:13:05;748.78;;;693.88;;
41404;SDS011;27146;51.788;8.824;2022-08-01T00:15:30;670.95;;;621.15;;
41404;SDS011;27146;51.788;8.824;2022-08-01T00:17:57;751.35;;;694.83;;
41404;SDS011;27146;51.788;8.824;2022-08-01T00:20:22;692.15;;;628.10;;
41404;SDS011;27146;51.788;8.824;2022-08-01T00:22:48;747.97;;;692.53;;
41404;SDS011;27146;51.788;8.824;2022-08-01T00:25:13;638.28;;;589.35;;
41404;SDS011;27146;51.788;8.824;2022-08-01T00:27:39;622.80;;;572.42;;
41404;SDS011;27146;51.788;8.824;2022-08-01T00:30:05;594.20;;;550.60;;
41404;SDS011;27146;51.788;8.824;2022-08-01T00:32:31;681.00;;;628.95;;
41404;SDS011;27146;51.788;8.824;2022-08-01T00:34:56;681.83;;;632.17;;
41404;SDS011;27146;51.788;8.824;2022-08-01T00:37:22;653.28;;;605.13;;
41404;SDS011;27146;51.788;8.824;2022-08-01T00:39:47;716.00;;;662.63;;
41404;SDS011;27146;51.788;8.824;2022-08-01T00:42:13;574.90;;;534.90;;
41404;SDS011;27146;51.788;8.824;2022-08-01T00:44:39;621.70;;;577.92;;
41404;SDS011;27146;51.788;8.824;2022-08-01T00:47:05;682.83;;;632.65;;
41404;SDS011;27146;51.788;8.824;2022-08-01T00:49:30;641.05;;;594.00;;
41404;SDS011;27146;51.788;8.824;2022-08-01T00:51:56;654.63;;;607.78;;
41404;SDS011;27146;51.788;8.824;2022-08-01T00:54:23;694.50;;;643.13;;
41404;SDS011;27146;51.788;8.824;2022-08-01T00:56:50;463.45;;;430.27;;
41404;SDS011;27146;51.788;8.824;2022-08-01T00:59:17;554.42;;;516.63;;
41404;SDS011;27146;51.788;8.824;2022-08-01T01:01:43;653.47;;;606.33;;
41404;SDS011;27146;51.788;8.824;2022-08-01T01:04:09;571.35;;;532.03;;
41404;SDS011;27146;51.788;8.824;2022-08-01T01:06:39;509.55;;;475.35;;
41404;SDS011;27146;51.788;8.824;2022-08-01T01:09:32;491.40;;;458.48;;
41404;SDS011;27146;51.788;8.824;2022-08-01T01:14:45;566.63;;;527.85;;
41404;SDS011;27146;51.788;8.824;2022-08-01T01:17:21;337.95;;;314.52;;
41404;SDS011;27146;51.788;8.824;2022-08-01T01:19:54;564.90;;;523.15;;
41404;SDS011;27146;51.788;8.824;2022-08-01T01:22:36;285.65;;;268.58;;
41404;SDS011;27146;51.788;8.824;2022-08-01T01:28:17;556.13;;;518.35;;
41404;SDS011;27146;51.788;8.824;2022-08-01T01:30:54;202.45;;;189.63;;
41404;SDS011;27146;51.788;8.824;2022-08-01T01:33:22;427.30;;;398.90;;
41404;SDS011;27146;51.788;8.824;2022-08-01T01:35:51;287.92;;;269.85;;
41404;SDS011;27146;51.788;8.824;2022-08-01T01:38:21;448.27;;;418.05;;
41404;SDS011;27146;51.788;8.824;2022-08-01T01:40:52;360.63;;;337.63;;
41404;SDS011;27146;51.788;8.824;2022-08-01T01:43:19;428.92;;;397.73;;
41404;SDS011;27146;51.788;8.824;2022-08-01T01:45:47;380.25;;;354.85;;
41404;SDS011;27146;51.788;8.824;2022-08-01T01:48:14;425.08;;;396.55;;
41404;SDS011;27146;51.788;8.824;2022-08-01T01:50:43;452.75;;;421.30;;
41404;SDS011;27146;51.788;8.824;2022-08-01T01:53:12;516.63;;;481.90;;
41404;SDS011;27146;51.788;8.824;2022-08-01T01:55:39;317.25;;;296.73;;
41404;SDS011;27146;51.788;8.824;2022-08-01T01:58:06;214.85;;;201.23;;
41404;SDS011;27146;51.788;8.824;2022-08-01T02:00:35;278.48;;;261.10;;
41404;SDS011;27146;51.788;8.824;2022-08-01T02:03:02;530.72;;;486.95;;
41404;SDS011;27146;51.788;8.824;2022-08-01T02:05:31;390.90;;;365.60;;
41404;SDS011;27146;51.788;8.824;2022-08-01T02:07:59;425.20;;;398.13;;
41404;SDS011;27146;51.788;8.824;2022-08-01T02:10:27;262.48;;;245.23;;
41404;SDS011;27146;51.788;8.824;2022-08-01T02:12:54;531.22;;;494.95;;
41404;SDS011;27146;51.788;8.824;2022-08-01T02:15:22;513.15;;;477.30;;
41404;SDS011;27146;51.788;8.824;2022-08-01T02:17:49;278.52;;;257.85;;
41404;SDS011;27146;51.788;8.824;2022-08-01T02:20:15;464.88;;;431.40;;
41404;SDS011;27146;51.788;8.824;2022-08-01T02:22:49;188.60;;;175.73;;
41404;SDS011;27146;51.788;8.824;2022-08-01T02:25:36;419.08;;;391.38;;
41404;SDS011;27146;51.788;8.824;2022-08-01T02:28:07;131.02;;;122.68;;
41404;SDS011;27146;51.788;8.824;2022-08-01T02:30:39;266.70;;;250.20;;
41404;SDS011;27146;51.788;8.824;2022-08-01T02:33:18;246.40;;;230.43;;
41404;SDS011;27146;51.788;8.824;2022-08-01T02:35:48;157.27;;;147.70;;
41404;SDS011;27146;51.788;8.824;2022-08-01T02:38:17;181.68;;;170.73;;
41404;SDS011;27146;51.788;8.824;2022-08-01T02:40:49;176.13;;;165.20;;
41404;SDS011;27146;51.788;8.824;2022-08-01T02:43:18;566.92;;;528.47;;
41404;SDS011;27146;51.788;8.824;2022-08-01T02:45:54;199.73;;;185.02;;
41404;SDS011;27146;51.788;8.824;2022-08-01T02:48:25;388.77;;;360.38;;
41404;SDS011;27146;51.788;8.824;2022-08-01T02:50:52;286.63;;;266.13;;
41404;SDS011;27146;51.788;8.824;2022-08-01T02:53:20;383.40;;;356.23;;
41404;SDS011;27146;51.788;8.824;2022-08-01T02:55:48;406.58;;;377.48;;
41404;SDS011;27146;51.788;8.824;2022-08-01T02:58:15;68.57;;;63.63;;
41404;SDS011;27146;51.788;8.824;2022-08-01T03:00:45;34.58;;;31.40;;
41404;SDS011;27146;51.788;8.824;2022-08-01T03:03:11;130.77;;;122.38;;
41404;SDS011;27146;51.788;8.824;2022-08-01T03:05:38;112.72;;;105.72;;
41404;SDS011;27146;51.788;8.824;2022-08-01T03:08:06;463.38;;;430.95;;
41404;SDS011;27146;51.788;8.824;2022-08-01T03:10:34;163.38;;;153.23;;
41404;SDS011;27146;51.788;8.824;2022-08-01T03:13:03;127.97;;;119.93;;
41404;SDS011;27146;51.788;8.824;2022-08-01T03:15:31;201.38;;;188.25;;
41404;SDS011;27146;51.788;8.824;2022-08-01T03:17:58;129.95;;;122.00;;
41404;SDS011;27146;51.788;8.824;2022-08-01T03:20:25;84.25;;;78.70;;
41404;SDS011;27146;51.788;8.824;2022-08-01T03:22:54;435.40;;;405.38;;
41404;SDS011;27146;51.788;8.824;2022-08-01T03:25:21;595.88;;;554.25;;
41404;SDS011;27146;51.788;8.824;2022-08-01T03:27:50;162.75;;;152.90;;
41404;SDS011;27146;51.788;8.824;2022-08-01T03:30:21;329.30;;;308.00;;
41404;SDS011;27146;51.788;8.824;2022-08-01T03:32:48;616.50;;;572.95;;
41404;SDS011;27146;51.788;8.824;2022-08-01T03:35:13;525.13;;;487.17;;
41404;SDS011;27146;51.788;8.824;2022-08-01T03:37:46;436.10;;;405.50;;
41404;SDS011;27146;51.788;8.824;2022-08-01T03:40:31;513.15;;;478.58;;
41404;SDS011;27146;51.788;8.824;2022-08-01T03:43:05;613.35;;;569.95;;
41404;SDS011;27146;51.788;8.824;2022-08-01T03:45:50;120.30;;;110.40;;
41404;SDS011;27146;51.788;8.824;2022-08-01T03:48:18;425.58;;;393.73;;
41404;SDS011;27146;51.788;8.824;2022-08-01T03:50:52;144.57;;;131.18;;
41404;SDS011;27146;51.788;8.824;2022-08-01T03:53:23;29.83;;;27.60;;
41404;SDS011;27146;51.788;8.824;2022-08-01T03:55:52;23.42;;;21.52;;
41404;SDS011;27146;51.788;8.824;2022-08-01T03:58:19;19.67;;;17.90;;
41404;SDS011;27146;51.788;8.824;2022-08-01T04:00:46;25.77;;;23.73;;
41404;SDS011;27146;51.788;8.824;2022-08-01T04:03:12;20.50;;;18.55;;
41404;SDS011;27146;51.788;8.824;2022-08-01T04:05:42;20.75;;;19.05;;
41404;SDS011;27146;51.788;8.824;2022-08-01T04:08:08;23.23;;;21.23;;
41404;SDS011;27146;51.788;8.824;2022-08-01T04:10:33;18.27;;;16.67;;
41404;SDS011;27146;51.788;8.824;2022-08-01T04:12:59;19.83;;;18.23;;
41404;SDS011;27146;51.788;8.824;2022-08-01T04:15:25;17.35;;;16.05;;
41404;SDS011;27146;51.788;8.824;2022-08-01T04:17:51;20.00;;;18.00;;
41404;SDS011;27146;51.788;8.824;2022-08-01T04:20:16;17.90;;;16.27;;
41404;SDS011;27146;51.788;8.824;2022-08-01T04:22:42;19.75;;;17.80;;
41404;SDS011;27146;51.788;8.824;2022-08-01T04:25:12;23.42;;;19.35;;
41404;SDS011;27146;51.788;8.824;2022-08-01T04:27:41;19.17;;;17.48;;
41404;SDS011;27146;51.788;8.824;2022-08-01T04:30:11;19.48;;;17.48;;
41404;SDS011;27146;51.788;8.824;2022-08-01T04:32:38;23.27;;;21.10;;
41404;SDS011;27146;51.788;8.824;2022-08-01T04:35:07;21.27;;;19.30;;
41404;SDS011;27146;51.788;8.824;2022-08-01T04:37:35;28.33;;;26.02;;
41404;SDS011;27146;51.788;8.824;2022-08-01T04:40:03;25.65;;;23.38;;
41404;SDS011;27146;51.788;8.824;2022-08-01T04:42:30;22.25;;;20.30;;
41404;SDS011;27146;51.788;8.824;2022-08-01T04:44:57;29.23;;;27.02;;
41404;SDS011;27146;51.788;8.824;2022-08-01T04:47:23;33.35;;;30.70;;
41404;SDS011;27146;51.788;8.824;2022-08-01T04:49:51;32.20;;;29.65;;
41404;SDS011;27146;51.788;8.824;2022-08-01T04:52:16;32.72;;;30.25;;
41404;SDS011;27146;51.788;8.824;2022-08-01T04:54:42;35.30;;;32.70;;
41404;SDS011;27146;51.788;8.824;2022-08-01T04:57:08;32.72;;;30.20;;
41404;SDS011;27146;51.788;8.824;2022-08-01T04:59:35;25.55;;;23.65;;
41404;SDS011;27146;51.788;8.824;2022-08-01T05:02:18;32.33;;;29.75;;
41404;SDS011;27146;51.788;8.824;2022-08-01T05:04:44;30.15;;;27.50;;
41404;SDS011;27146;51.788;8.824;2022-08-01T05:07:11;27.15;;;25.08;;
41404;SDS011;27146;51.788;8.824;2022-08-01T05:09:37;36.22;;;33.85;;
41404;SDS011;27146;51.788;8.824;2022-08-01T05:12:06;33.42;;;30.77;;
41404;SDS011;27146;51.788;8.824;2022-08-01T05:14:33;39.17;;;36.17;;
41404;SDS011;27146;51.788;8.824;2022-08-01T05:16:59;30.98;;;28.33;;
41404;SDS011;27146;51.788;8.824;2022-08-01T05:19:28;29.13;;;26.90;;
41404;SDS011;27146;51.788;8.824;2022-08-01T05:21:55;30.20;;;27.63;;
41404;SDS011;27146;51.788;8.824;2022-08-01T05:24:21;32.80;;;30.30;;
41404;SDS011;27146;51.788;8.824;2022-08-01T05:26:47;32.70;;;30.20;;
41404;SDS011;27146;51.788;8.824;2022-08-01T05:29:13;25.15;;;23.05;;
41404;SDS011;27146;51.788;8.824;2022-08-01T05:31:39;27.17;;;25.17;;
41404;SDS011;27146;51.788;8.824;2022-08-01T05:34:05;27.52;;;25.23;;
41404;SDS011;27146;51.788;8.824;2022-08-01T05:36:30;25.98;;;23.67;;
41404;SDS011;27146;51.788;8.824;2022-08-01T05:38:56;26.58;;;24.77;;
41404;SDS011;27146;51.788;8.824;2022-08-01T05:41:21;23.02;;;21.23;;
41404;SDS011;27146;51.788;8.824;2022-08-01T05:43:47;23.02;;;20.95;;
41404;SDS011;27146;51.788;8.824;2022-08-01T05:46:13;23.50;;;21.40;;
41404;SDS011;27146;51.788;8.824;2022-08-01T05:48:38;20.38;;;18.58;;
41404;SDS011;27146;51.788;8.824;2022-08-01T05:51:04;25.00;;;23.08;;
41404;SDS011;27146;51.788;8.824;2022-08-01T05:53:30;27.02;;;24.98;;
41404;SDS011;27146;51.788;8.824;2022-08-01T05:55:59;26.15;;;24.15;;
41404;SDS011;27146;51.788;8.824;2022-08-01T05:58:24;23.95;;;22.05;;
41404;SDS011;27146;51.788;8.824;2022-08-01T06:00:50;32.08;;;29.88;;
41404;SDS011;27146;51.788;8.824;2022-08-01T06:03:16;29.42;;;27.13;;
41404;SDS011;27146;51.788;8.824;2022-08-01T06:05:41;24.30;;;22.58;;
41404;SDS011;27146;51.788;8.824;2022-08-01T06:08:07;23.85;;;21.75;;
41404;SDS011;27146;51.788;8.824;2022-08-01T06:10:32;27.42;;;25.45;;
41404;SDS011;27146;51.788;8.824;2022-08-01T06:12:58;29.75;;;27.65;;
41404;SDS011;27146;51.788;8.824;2022-08-01T06:15:24;20.08;;;18.38;;
41404;SDS011;27146;51.788;8.824;2022-08-01T06:17:50;21.77;;;19.98;;
41404;SDS011;27146;51.788;8.824;2022-08-01T06:20:15;25.02;;;23.00;;
41404;SDS011;27146;51.788;8.824;2022-08-01T06:22:40;24.90;;;22.80;;
41404;SDS011;27146;51.788;8.824;2022-08-01T06:25:06;24.52;;;22.42;;
41404;SDS011;27146;51.788;8.824;2022-08-01T06:27:35;23.30;;;21.42;;
41404;SDS011;27146;51.788;8.824;2022-08-01T06:30:02;28.02;;;25.85;;
41404;SDS011;27146;51.788;8.824;2022-08-01T06:32:28;23.40;;;21.23;;
41404;SDS011;27146;51.788;8.824;2022-08-01T06:34:54;22.13;;;20.42;;
41404;SDS011;27146;51.788;8.824;2022-08-01T06:37:20;19.58;;;18.02;;
41404;SDS011;27146;51.788;8.824;2022-08-01T06:39:46;22.10;;;20.48;;
41404;SDS011;27146;51.788;8.824;2022-08-01T06:42:12;26.23;;;24.48;;
41404;SDS011;27146;51.788;8.824;2022-08-01T06:44:39;20.27;;;18.77;;
41404;SDS011;27146;51.788;8.824;2022-08-01T06:47:05;20.80;;;19.08;;
41404;SDS011;27146;51.788;8.824;2022-08-01T06:49:30;20.77;;;19.10;;
41404;SDS011;27146;51.788;8.824;2022-08-01T06:51:56;29.83;;;27.73;;
41404;SDS011;27146;51.788;8.824;2022-08-01T06:54:21;32.10;;;29.88;;
41404;SDS011;27146;51.788;8.824;2022-08-01T06:56:47;27.65;;;25.67;;
41404;SDS011;27146;51.788;8.824;2022-08-01T06:59:12;27.80;;;25.80;;
41404;SDS011;27146;51.788;8.824;2022-08-01T07:01:38;21.30;;;19.80;;
41404;SDS011;27146;51.788;8.824;2022-08-01T07:04:03;39.67;;;37.28;;
41404;SDS011;27146;51.788;8.824;2022-08-01T07:06:29;38.22;;;35.65;;
41404;SDS011;27146;51.788;8.824;2022-08-01T07:08:55;32.88;;;30.80;;
41404;SDS011;27146;51.788;8.824;2022-08-01T07:11:21;38.67;;;35.80;;
41404;SDS011;27146;51.788;8.824;2022-08-01T07:13:48;43.30;;;40.42;;
41404;SDS011;27146;51.788;8.824;2022-08-01T07:16:14;59.85;;;56.33;;
41404;SDS011;27146;51.788;8.824;2022-08-01T07:18:40;42.45;;;39.63;;
41404;SDS011;27146;51.788;8.824;2022-08-01T07:21:06;40.08;;;37.47;;
41404;SDS011;27146;51.788;8.824;2022-08-01T07:23:32;40.42;;;37.55;;
41404;SDS011;27146;51.788;8.824;2022-08-01T07:25:58;44.45;;;41.75;;
41404;SDS011;27146;51.788;8.824;2022-08-01T07:28:26;46.33;;;43.55;;
41404;SDS011;27146;51.788;8.824;2022-08-01T07:30:52;52.17;;;49.17;;
41404;SDS011;27146;51.788;8.824;2022-08-01T07:33:18;54.28;;;51.15;;
41404;SDS011;27146;51.788;8.824;2022-08-01T07:35:44;50.05;;;47.00;;
41404;SDS011;27146;51.788;8.824;2022-08-01T07:38:09;47.92;;;44.95;;
41404;SDS011;27146;51.788;8.824;2022-08-01T07:40:35;49.78;;;46.53;;
41404;SDS011;27146;51.788;8.824;2022-08-01T07:43:01;58.40;;;54.78;;
41404;SDS011;27146;51.788;8.824;2022-08-01T07:45:27;61.65;;;58.13;;
41404;SDS011;27146;51.788;8.824;2022-08-01T07:47:53;74.03;;;69.57;;
41404;SDS011;27146;51.788;8.824;2022-08-01T07:50:19;85.00;;;79.97;;
41404;SDS011;27146;51.788;8.824;2022-08-01T07:52:44;100.80;;;93.65;;
41404;SDS011;27146;51.788;8.824;2022-08-01T07:55:10;115.90;;;109.20;;
41404;SDS011;27146;51.788;8.824;2022-08-01T07:57:37;107.78;;;101.68;;
41404;SDS011;27146;51.788;8.824;2022-08-01T08:00:03;155.73;;;146.95;;
41404;SDS011;27146;51.788;8.824;2022-08-01T08:02:31;153.98;;;145.35;;
41404;SDS011;27146;51.788;8.824;2022-08-01T08:04:56;111.85;;;105.63;;
41404;SDS011;27146;51.788;8.824;2022-08-01T08:07:22;157.38;;;148.60;;
41404;SDS011;27146;51.788;8.824;2022-08-01T08:09:47;128.43;;;121.32;;
41404;SDS011;27146;51.788;8.824;2022-08-01T08:12:13;105.07;;;99.15;;
41404;SDS011;27146;51.788;8.824;2022-08-01T08:14:38;88.78;;;83.63;;
41404;SDS011;27146;51.788;8.824;2022-08-01T08:17:04;95.95;;;90.38;;
41404;SDS011;27146;51.788;8.824;2022-08-01T08:19:30;95.40;;;89.80;;
41404;SDS011;27146;51.788;8.824;2022-08-01T08:21:58;67.18;;;63.20;;
41404;SDS011;27146;51.788;8.824;2022-08-01T08:24:26;69.30;;;65.13;;
41404;SDS011;27146;51.788;8.824;2022-08-01T08:26:56;73.90;;;69.43;;
41404;SDS011;27146;51.788;8.824;2022-08-01T08:29:23;60.60;;;56.90;;
41404;SDS011;27146;51.788;8.824;2022-08-01T08:31:52;62.00;;;58.22;;
41404;SDS011;27146;51.788;8.824;2022-08-01T08:34:18;68.28;;;63.97;;
41404;SDS011;27146;51.788;8.824;2022-08-01T08:36:44;62.10;;;58.38;;
41404;SDS011;27146;51.788;8.824;2022-08-01T08:39:10;65.82;;;61.88;;
41404;SDS011;27146;51.788;8.824;2022-08-01T08:41:36;58.50;;;54.70;;
41404;SDS011;27146;51.788;8.824;2022-08-01T08:44:02;72.32;;;68.00;;
41404;SDS011;27146;51.788;8.824;2022-08-01T08:46:29;69.10;;;65.10;;
41404;SDS011;27146;51.788;8.824;2022-08-01T08:49:01;92.70;;;87.03;;
41404;SDS011;27146;51.788;8.824;2022-08-01T08:51:28;103.35;;;97.38;;
41404;SDS011;27146;51.788;8.824;2022-08-01T08:53:57;103.35;;;97.25;;
41404;SDS011;27146;51.788;8.824;2022-08-01T08:56:23;70.45;;;66.28;;
41404;SDS011;27146;51.788;8.824;2022-08-01T08:58:50;75.38;;;70.93;;
41404;SDS011;27146;51.788;8.824;2022-08-01T09:01:16;83.50;;;78.68;;
41404;SDS011;27146;51.788;8.824;2022-08-01T09:03:42;72.82;;;68.72;;
41404;SDS011;27146;51.788;8.824;2022-08-01T09:06:09;80.80;;;76.00;;
41404;SDS011;27146;51.788;8.824;2022-08-01T09:08:35;77.03;;;69.97;;
41404;SDS011;27146;51.788;8.824;2022-08-01T09:11:01;107.15;;;101.18;;
41404;SDS011;27146;51.788;8.824;2022-08-01T09:13:27;136.93;;;129.40;;
41404;SDS011;27146;51.788;8.824;2022-08-01T09:15:53;194.20;;;183.68;;
41404;SDS011;27146;51.788;8.824;2022-08-01T09:18:30;195.32;;;184.50;;
41404;SDS011;27146;51.788;8.824;2022-08-01T09:23:38;184.75;;;174.60;;
41404;SDS011;27146;51.788;8.824;2022-08-01T09:26:09;159.07;;;150.25;;
41404;SDS011;27146;51.788;8.824;2022-08-01T09:28:35;289.23;;;272.85;;
41404;SDS011;27146;51.788;8.824;2022-08-01T09:31:39;349.92;;;329.52;;
41404;SDS011;27146;51.788;8.824;2022-08-01T09:33:56;294.45;;;277.80;;
41404;SDS011;27146;51.788;8.824;2022-08-01T09:36:24;483.88;;;453.05;;
41404;SDS011;27146;51.788;8.824;2022-08-01T09:38:52;543.88;;;508.27;;
41404;SDS011;27146;51.788;8.824;2022-08-01T09:41:31;563.08;;;525.50;;
41404;SDS011;27146;51.788;8.824;2022-08-01T09:43:57;596.03;;;555.30;;
41404;SDS011;27146;51.788;8.824;2022-08-01T09:46:24;1999.90;;;999.90;;
41404;SDS011;27146;51.788;8.824;2022-08-01T09:49:02;537.90;;;495.05;;
41404;SDS011;27146;51.788;8.824;2022-08-01T09:51:37;614.38;;;572.50;;
41404;SDS011;27146;51.788;8.824;2022-08-01T09:54:04;625.97;;;584.00;;
41404;SDS011;27146;51.788;8.824;2022-08-01T09:56:38;666.05;;;619.65;;
41404;SDS011;27146;51.788;8.824;2022-08-01T09:59:05;599.45;;;559.13;;
41404;SDS011;27146;51.788;8.824;2022-08-01T10:01:46;635.25;;;591.70;;
41404;SDS011;27146;51.788;8.824;2022-08-01T10:04:14;553.63;;;516.75;;
41404;SDS011;27146;51.788;8.824;2022-08-01T10:06:45;592.38;;;551.95;;
41404;SDS011;27146;51.788;8.824;2022-08-01T10:09:14;558.25;;;521.65;;
41404;SDS011;27146;51.788;8.824;2022-08-01T10:11:41;599.00;;;558.88;;
41404;SDS011;27146;51.788;8.824;2022-08-01T10:14:07;638.58;;;595.25;;
41404;SDS011;27146;51.788;8.824;2022-08-01T10:16:34;636.30;;;592.67;;
41404;SDS011;27146;51.788;8.824;2022-08-01T10:19:01;620.55;;;577.90;;
41404;SDS011;27146;51.788;8.824;2022-08-01T10:21:29;622.75;;;580.45;;
41404;SDS011;27146;51.788;8.824;2022-08-01T10:23:57;551.25;;;514.30;;
41404;SDS011;27146;51.788;8.824;2022-08-01T10:26:25;577.33;;;539.13;;
41404;SDS011;27146;51.788;8.824;2022-08-01T10:28:53;454.25;;;426.00;;
41404;SDS011;27146;51.788;8.824;2022-08-01T10:31:18;441.23;;;413.80;;
41404;SDS011;27146;51.788;8.824;2022-08-01T10:33:45;300.77;;;283.73;;
41404;SDS011;27146;51.788;8.824;2022-08-01T10:36:10;334.90;;;315.67;;
41404;SDS011;27146;51.788;8.824;2022-08-01T10:38:36;360.80;;;339.15;;
41404;SDS011;27146;51.788;8.824;2022-08-01T10:41:03;326.60;;;307.98;;
41404;SDS011;27146;51.788;8.824;2022-08-01T10:43:29;364.35;;;343.00;;
41404;SDS011;27146;51.788;8.824;2022-08-01T10:45:55;263.27;;;248.73;;
41404;SDS011;27146;51.788;8.824;2022-08-01T10:48:27;279.98;;;263.98;;
41404;SDS011;27146;51.788;8.824;2022-08-01T10:51:01;185.65;;;175.30;;
41404;SDS011;27146;51.788;8.824;2022-08-01T10:53:30;191.98;;;181.40;;
41404;SDS011;27146;51.788;8.824;2022-08-01T10:56:02;164.93;;;155.77;;
41404;SDS011;27146;51.788;8.824;2022-08-01T10:58:32;163.73;;;154.70;;
41404;SDS011;27146;51.788;8.824;2022-08-01T11:06:47;159.90;;;151.07;;
41404;SDS011;27146;51.788;8.824;2022-08-01T11:14:35;292.42;;;276.13;;
41404;SDS011;27146;51.788;8.824;2022-08-01T11:20:10;390.38;;;367.23;;
41404;SDS011;27146;51.788;8.824;2022-08-01T11:30:44;507.55;;;474.75;;
41404;SDS011;27146;51.788;8.824;2022-08-01T11:33:11;337.02;;;317.45;;
41404;SDS011;27146;51.788;8.824;2022-08-01T11:36:16;342.90;;;322.88;;
41404;SDS011;27146;51.788;8.824;2022-08-01T11:38:43;294.38;;;277.63;;
41404;SDS011;27146;51.788;8.824;2022-08-01T11:43:57;368.40;;;347.35;;
41404;SDS011;27146;51.788;8.824;2022-08-01T11:49:24;312.08;;;294.40;;
41404;SDS011;27146;51.788;8.824;2022-08-01T11:57:19;354.65;;;334.17;;
41404;SDS011;27146;51.788;8.824;2022-08-01T11:59:54;401.77;;;377.85;;
41404;SDS011;27146;51.788;8.824;2022-08-01T12:02:22;389.38;;;366.15;;
41404;SDS011;27146;51.788;8.824;2022-08-01T12:07:19;367.58;;;346.45;;
41404;SDS011;27146;51.788;8.824;2022-08-01T12:09:46;407.73;;;383.25;;
41404;SDS011;27146;51.788;8.824;2022-08-01T12:12:16;611.50;;;569.95;;
41404;SDS011;27146;51.788;8.824;2022-08-01T12:14:42;494.38;;;462.92;;
41404;SDS011;27146;51.788;8.824;2022-08-01T12:17:09;481.73;;;450.73;;
41404;SDS011;27146;51.788;8.824;2022-08-01T12:19:35;607.10;;;566.83;;
41404;SDS011;27146;51.788;8.824;2022-08-01T12:22:21;572.97;;;534.72;;
41404;SDS011;27146;51.788;8.824;2022-08-01T12:24:47;608.90;;;567.67;;
41404;SDS011;27146;51.788;8.824;2022-08-01T12:27:13;693.45;;;644.67;;
41404;SDS011;27146;51.788;8.824;2022-08-01T12:29:53;623.40;;;581.72;;
41404;SDS011;27146;51.788;8.824;2022-08-01T12:34:47;975.13;;;691.25;;
41404;SDS011;27146;51.788;8.824;2022-08-01T12:37:13;625.30;;;579.58;;
41404;SDS011;27146;51.788;8.824;2022-08-01T12:39:39;675.08;;;627.55;;
41404;SDS011;27146;51.788;8.824;2022-08-01T12:42:06;691.92;;;644.40;;
41404;SDS011;27146;51.788;8.824;2022-08-01T12:44:35;752.35;;;698.60;;
41404;SDS011;27146;51.788;8.824;2022-08-01T12:47:02;723.28;;;671.88;;
41404;SDS011;27146;51.788;8.824;2022-08-01T12:49:30;1999.90;;;999.90;;
41404;SDS011;27146;51.788;8.824;2022-08-01T12:51:57;740.28;;;687.53;;
41404;SDS011;27146;51.788;8.824;2022-08-01T12:54:22;719.25;;;668.90;;
41404;SDS011;27146;51.788;8.824;2022-08-01T12:56:50;694.45;;;645.72;;
41404;SDS011;27146;51.788;8.824;2022-08-01T12:59:22;666.88;;;620.45;;
41404;SDS011;27146;51.788;8.824;2022-08-01T13:01:50;687.85;;;639.65;;
41404;SDS011;27146;51.788;8.824;2022-08-01T13:04:17;649.17;;;604.90;;
41404;SDS011;27146;51.788;8.824;2022-08-01T13:06:42;721.58;;;670.85;;
41404;SDS011;27146;51.788;8.824;2022-08-01T13:09:08;708.92;;;659.13;;
41404;SDS011;27146;51.788;8.824;2022-08-01T13:11:38;686.67;;;638.90;;
41404;SDS011;27146;51.788;8.824;2022-08-01T13:14:05;745.08;;;689.83;;
41404;SDS011;27146;51.788;8.824;2022-08-01T13:16:31;1999.90;;;999.90;;
41404;SDS011;27146;51.788;8.824;2022-08-01T13:18:57;1999.90;;;999.90;;
41404;SDS011;27146;51.788;8.824;2022-08-01T13:21:27;1999.90;;;999.90;;
41404;SDS011;27146;51.788;8.824;2022-08-01T13:24:00;1999.90;;;999.90;;
41404;SDS011;27146;51.788;8.824;2022-08-01T13:26:41;1999.90;;;999.90;;
41404;SDS011;27146;51.788;8.824;2022-08-01T13:29:16;1999.90;;;999.90;;
41404;SDS011;27146;51.788;8.824;2022-08-01T13:31:47;1999.90;;;999.90;;
41404;SDS011;27146;51.788;8.824;2022-08-01T13:34:13;1999.90;;;999.90;;
41404;SDS011;27146;51.788;8.824;2022-08-01T13:36:40;1999.90;;;999.90;;
41404;SDS011;27146;51.788;8.824;2022-08-01T13:39:06;1999.90;;;999.90;;
41404;SDS011;27146;51.788;8.824;2022-08-01T13:41:51;1999.90;;;999.90;;
41404;SDS011;27146;51.788;8.824;2022-08-01T13:44:17;1999.90;;;999.90;;
41404;SDS011;27146;51.788;8.824;2022-08-01T13:46:43;1999.90;;;999.90;;
41404;SDS011;27146;51.788;8.824;2022-08-01T13:49:10;1999.90;;;999.90;;
41404;SDS011;27146;51.788;8.824;2022-08-01T13:51:36;1999.90;;;999.90;;
41404;SDS011;27146;51.788;8.824;2022-08-01T13:54:03;1999.90;;;999.90;;
41404;SDS011;27146;51.788;8.824;2022-08-01T13:56:29;1999.90;;;999.90;;
41404;SDS011;27146;51.788;8.824;2022-08-01T13:58:55;1999.90;;;999.90;;
41404;SDS011;27146;51.788;8.824;2022-08-01T14:01:21;1999.90;;;999.90;;
41404;SDS011;27146;51.788;8.824;2022-08-01T14:03:48;1999.90;;;999.90;;
41404;SDS011;27146;51.788;8.824;2022-08-01T14:06:13;1999.90;;;999.90;;
41404;SDS011;27146;51.788;8.824;2022-08-01T14:08:41;1999.90;;;999.90;;
41404;SDS011;27146;51.788;8.824;2022-08-01T14:11:07;1999.90;;;999.90;;
41404;SDS011;27146;51.788;8.824;2022-08-01T14:13:32;1999.90;;;999.90;;
41404;SDS011;27146;51.788;8.824;2022-08-01T14:15:58;1999.90;;;999.90;;
41404;SDS011;27146;51.788;8.824;2022-08-01T14:18:23;1999.90;;;999.90;;
41404;SDS011;27146;51.788;8.824;2022-08-01T14:20:49;1999.90;;;999.90;;
41404;SDS011;27146;51.788;8.824;2022-08-01T14:23:14;1999.90;;;999.90;;
41404;SDS011;27146;51.788;8.824;2022-08-01T14:25:40;1999.90;;;999.90;;
41404;SDS011;27146;51.788;8.824;2022-08-01T14:28:06;1999.90;;;999.90;;
41404;SDS011;27146;51.788;8.824;2022-08-01T14:30:32;1999.90;;;999.90;;
41404;SDS011;27146;51.788;8.824;2022-08-01T14:32:58;1999.90;;;999.90;;
41404;SDS011;27146;51.788;8.824;2022-08-01T14:35:24;1999.90;;;999.90;;
41404;SDS011;27146;51.788;8.824;2022-08-01T14:37:50;1999.90;;;999.90;;
41404;SDS011;27146;51.788;8.824;2022-08-01T14:40:16;1999.90;;;999.90;;
41404;SDS011;27146;51.788;8.824;2022-08-01T14:42:42;1999.90;;;999.90;;
41404;SDS011;27146;51.788;8.824;2022-08-01T14:45:11;1999.90;;;999.90;;
41404;SDS011;27146;51.788;8.824;2022-08-01T14:47:38;1999.90;;;999.90;;
41404;SDS011;27146;51.788;8.824;2022-08-01T14:50:05;1999.90;;;999.90;;
41404;SDS011;27146;51.788;8.824;2022-08-01T14:52:33;1999.90;;;999.90;;
41404;SDS011;27146;51.788;8.824;2022-08-01T14:55:00;1999.90;;;999.90;;